sensor_id;sensor_type;location;lat;lon;timestamp;P1;durP1;ratioP1;P2;durP2;ratioP2
29730;SDS011;16639;51.488;0.152;2024-02-14T00:00:48;41.42;;;7.05;;
29730;SDS011;16639;51.488;0.152;2024-02-14T00:03:17;46.47;;;7.72;;
29730;SDS011;16639;51.488;0.152;2024-02-14T00:05:45;47.40;;;8.07;;
29730;SDS011;16639;51.488;0.152;2024-02-14T00:08:13;38.25;;;7.10;;
29730;SDS011;16639;51.488;0.152;2024-02-14T00:10:41;39.67;;;8.50;;
29730;SDS011;16639;51.488;0.152;2024-02-14T00:13:11;42.13;;;8.15;;
29730;SDS011;16639;51.488;0.152;2024-02-14T00:15:40;37.85;;;8.75;;
29730;SDS011;16639;51.488;0.152;2024-02-14T00:18:08;41.60;;;9.32;;
29730;SDS011;16639;51.488;0.152;2024-02-14T00:20:36;54.22;;;8.75;;
29730;SDS011;16639;51.488;0.152;2024-02-14T00:23:05;37.78;;;9.45;;
29730;SDS011;16639;51.488;0.152;2024-02-14T00:25:33;37.40;;;8.15;;
29730;SDS011;16639;51.488;0.152;2024-02-14T00:28:01;47.85;;;9.77;;
29730;SDS011;16639;51.488;0.152;2024-02-14T00:30:30;44.58;;;7.68;;
29730;SDS011;16639;51.488;0.152;2024-02-14T00:32:58;45.65;;;7.97;;
29730;SDS011;16639;51.488;0.152;2024-02-14T00:35:25;37.17;;;9.07;;
29730;SDS011;16639;51.488;0.152;2024-02-14T00:37:53;31.45;;;8.48;;
29730;SDS011;16639;51.488;0.152;2024-02-14T00:40:20;60.50;;;9.07;;
29730;SDS011;16639;51.488;0.152;2024-02-14T00:42:49;35.88;;;6.47;;
29730;SDS011;16639;51.488;0.152;2024-02-14T00:45:16;34.67;;;7.15;;
29730;SDS011;16639;51.488;0.152;2024-02-14T00:47:44;46.30;;;7.07;;
29730;SDS011;16639;51.488;0.152;2024-02-14T00:50:11;32.38;;;7.82;;
29730;SDS011;16639;51.488;0.152;2024-02-14T00:52:40;32.92;;;6.72;;
29730;SDS011;16639;51.488;0.152;2024-02-14T00:55:08;32.40;;;7.00;;
29730;SDS011;16639;51.488;0.152;2024-02-14T00:57:36;37.33;;;6.47;;
29730;SDS011;16639;51.488;0.152;2024-02-14T01:00:04;29.20;;;6.10;;
29730;SDS011;16639;51.488;0.152;2024-02-14T01:02:34;26.60;;;5.72;;
29730;SDS011;16639;51.488;0.152;2024-02-14T01:05:02;30.02;;;5.90;;
29730;SDS011;16639;51.488;0.152;2024-02-14T01:07:31;27.15;;;7.13;;
29730;SDS011;16639;51.488;0.152;2024-02-14T01:09:58;32.78;;;6.68;;
29730;SDS011;16639;51.488;0.152;2024-02-14T01:12:26;31.23;;;5.68;;
29730;SDS011;16639;51.488;0.152;2024-02-14T01:14:53;25.70;;;7.05;;
29730;SDS011;16639;51.488;0.152;2024-02-14T01:17:21;42.20;;;7.22;;
29730;SDS011;16639;51.488;0.152;2024-02-14T01:19:48;25.67;;;5.63;;
29730;SDS011;16639;51.488;0.152;2024-02-14T01:22:16;29.65;;;5.38;;
29730;SDS011;16639;51.488;0.152;2024-02-14T01:24:44;17.45;;;5.60;;
29730;SDS011;16639;51.488;0.152;2024-02-14T01:27:12;24.42;;;5.90;;
29730;SDS011;16639;51.488;0.152;2024-02-14T01:29:40;23.25;;;5.78;;
29730;SDS011;16639;51.488;0.152;2024-02-14T01:32:07;18.88;;;5.35;;
29730;SDS011;16639;51.488;0.152;2024-02-14T01:34:36;28.58;;;6.22;;
29730;SDS011;16639;51.488;0.152;2024-02-14T01:37:03;20.20;;;6.35;;
29730;SDS011;16639;51.488;0.152;2024-02-14T01:39:31;22.02;;;6.43;;
29730;SDS011;16639;51.488;0.152;2024-02-14T01:41:59;23.83;;;5.38;;
29730;SDS011;16639;51.488;0.152;2024-02-14T01:44:27;19.48;;;5.15;;
29730;SDS011;16639;51.488;0.152;2024-02-14T01:46:54;25.75;;;5.53;;
29730;SDS011;16639;51.488;0.152;2024-02-14T01:49:21;23.30;;;5.93;;
29730;SDS011;16639;51.488;0.152;2024-02-14T01:51:49;16.15;;;5.72;;
29730;SDS011;16639;51.488;0.152;2024-02-14T01:54:17;22.13;;;5.55;;
29730;SDS011;16639;51.488;0.152;2024-02-14T01:56:45;10.48;;;3.85;;
29730;SDS011;16639;51.488;0.152;2024-02-14T01:59:13;22.50;;;4.68;;
29730;SDS011;16639;51.488;0.152;2024-02-14T02:01:42;22.45;;;4.78;;
29730;SDS011;16639;51.488;0.152;2024-02-14T02:04:10;25.38;;;5.43;;
29730;SDS011;16639;51.488;0.152;2024-02-14T02:06:37;20.75;;;5.40;;
29730;SDS011;16639;51.488;0.152;2024-02-14T02:09:08;20.92;;;4.10;;
29730;SDS011;16639;51.488;0.152;2024-02-14T02:11:44;15.70;;;4.00;;
29730;SDS011;16639;51.488;0.152;2024-02-14T02:14:15;24.15;;;4.75;;
29730;SDS011;16639;51.488;0.152;2024-02-14T02:16:43;21.20;;;6.75;;
29730;SDS011;16639;51.488;0.152;2024-02-14T02:19:11;16.83;;;4.60;;
29730;SDS011;16639;51.488;0.152;2024-02-14T02:21:44;28.98;;;5.20;;
29730;SDS011;16639;51.488;0.152;2024-02-14T02:24:14;19.63;;;4.50;;
29730;SDS011;16639;51.488;0.152;2024-02-14T02:26:41;17.67;;;5.75;;
29730;SDS011;16639;51.488;0.152;2024-02-14T02:29:09;24.63;;;4.72;;
29730;SDS011;16639;51.488;0.152;2024-02-14T02:31:36;10.95;;;4.00;;
29730;SDS011;16639;51.488;0.152;2024-02-14T02:34:05;15.35;;;3.42;;
29730;SDS011;16639;51.488;0.152;2024-02-14T02:36:33;21.77;;;5.38;;
29730;SDS011;16639;51.488;0.152;2024-02-14T02:39:01;20.60;;;4.72;;
29730;SDS011;16639;51.488;0.152;2024-02-14T02:41:29;18.23;;;5.65;;
29730;SDS011;16639;51.488;0.152;2024-02-14T02:43:56;15.73;;;3.78;;
29730;SDS011;16639;51.488;0.152;2024-02-14T02:46:24;24.15;;;3.63;;
29730;SDS011;16639;51.488;0.152;2024-02-14T02:48:52;21.95;;;3.28;;
29730;SDS011;16639;51.488;0.152;2024-02-14T02:51:24;12.23;;;3.60;;
29730;SDS011;16639;51.488;0.152;2024-02-14T02:53:51;9.30;;;3.90;;
29730;SDS011;16639;51.488;0.152;2024-02-14T02:56:19;12.98;;;3.28;;
29730;SDS011;16639;51.488;0.152;2024-02-14T02:58:48;9.20;;;2.97;;
29730;SDS011;16639;51.488;0.152;2024-02-14T03:01:16;14.55;;;3.17;;
29730;SDS011;16639;51.488;0.152;2024-02-14T03:03:43;13.48;;;3.03;;
29730;SDS011;16639;51.488;0.152;2024-02-14T03:06:10;12.23;;;2.80;;
29730;SDS011;16639;51.488;0.152;2024-02-14T03:08:39;10.48;;;3.40;;
29730;SDS011;16639;51.488;0.152;2024-02-14T03:11:07;12.35;;;2.65;;
29730;SDS011;16639;51.488;0.152;2024-02-14T03:13:34;15.98;;;3.47;;
29730;SDS011;16639;51.488;0.152;2024-02-14T03:16:03;8.70;;;2.72;;
29730;SDS011;16639;51.488;0.152;2024-02-14T03:18:31;14.68;;;3.45;;
29730;SDS011;16639;51.488;0.152;2024-02-14T03:20:59;5.70;;;2.67;;
29730;SDS011;16639;51.488;0.152;2024-02-14T03:23:27;11.27;;;2.40;;
29730;SDS011;16639;51.488;0.152;2024-02-14T03:25:55;10.80;;;2.65;;
29730;SDS011;16639;51.488;0.152;2024-02-14T03:28:22;5.32;;;2.10;;
29730;SDS011;16639;51.488;0.152;2024-02-14T03:30:50;11.52;;;2.67;;
29730;SDS011;16639;51.488;0.152;2024-02-14T03:33:17;9.25;;;2.47;;
29730;SDS011;16639;51.488;0.152;2024-02-14T03:35:45;8.25;;;2.05;;
29730;SDS011;16639;51.488;0.152;2024-02-14T03:38:13;8.20;;;2.58;;
29730;SDS011;16639;51.488;0.152;2024-02-14T03:40:50;15.50;;;3.20;;
29730;SDS011;16639;51.488;0.152;2024-02-14T03:43:18;6.78;;;2.45;;
29730;SDS011;16639;51.488;0.152;2024-02-14T03:45:46;4.55;;;1.90;;
29730;SDS011;16639;51.488;0.152;2024-02-14T03:48:13;5.45;;;1.90;;
29730;SDS011;16639;51.488;0.152;2024-02-14T03:50:41;5.63;;;2.80;;
29730;SDS011;16639;51.488;0.152;2024-02-14T03:53:09;3.28;;;2.05;;
29730;SDS011;16639;51.488;0.152;2024-02-14T03:55:41;9.10;;;2.47;;
29730;SDS011;16639;51.488;0.152;2024-02-14T03:58:09;8.50;;;2.28;;
29730;SDS011;16639;51.488;0.152;2024-02-14T04:00:36;4.75;;;1.55;;
29730;SDS011;16639;51.488;0.152;2024-02-14T04:03:04;4.20;;;1.70;;
29730;SDS011;16639;51.488;0.152;2024-02-14T04:05:31;7.00;;;1.70;;
29730;SDS011;16639;51.488;0.152;2024-02-14T04:07:59;6.30;;;1.65;;
29730;SDS011;16639;51.488;0.152;2024-02-14T04:10:27;4.15;;;1.70;;
29730;SDS011;16639;51.488;0.152;2024-02-14T04:12:54;5.25;;;1.60;;
29730;SDS011;16639;51.488;0.152;2024-02-14T04:15:21;6.88;;;1.88;;
29730;SDS011;16639;51.488;0.152;2024-02-14T04:17:49;5.90;;;1.92;;
29730;SDS011;16639;51.488;0.152;2024-02-14T04:20:17;4.63;;;1.98;;
29730;SDS011;16639;51.488;0.152;2024-02-14T04:22:44;5.00;;;1.80;;
29730;SDS011;16639;51.488;0.152;2024-02-14T04:25:12;7.05;;;2.03;;
29730;SDS011;16639;51.488;0.152;2024-02-14T04:27:41;7.47;;;2.20;;
29730;SDS011;16639;51.488;0.152;2024-02-14T04:30:09;7.22;;;1.83;;
29730;SDS011;16639;51.488;0.152;2024-02-14T04:32:37;7.80;;;2.40;;
29730;SDS011;16639;51.488;0.152;2024-02-14T04:35:05;7.45;;;2.53;;
29730;SDS011;16639;51.488;0.152;2024-02-14T04:37:33;4.78;;;2.20;;
29730;SDS011;16639;51.488;0.152;2024-02-14T04:40:00;13.75;;;3.22;;
29730;SDS011;16639;51.488;0.152;2024-02-14T04:42:30;8.27;;;2.20;;
29730;SDS011;16639;51.488;0.152;2024-02-14T04:44:58;11.70;;;3.22;;
29730;SDS011;16639;51.488;0.152;2024-02-14T04:47:25;12.60;;;2.90;;
29730;SDS011;16639;51.488;0.152;2024-02-14T04:49:53;10.82;;;3.67;;
29730;SDS011;16639;51.488;0.152;2024-02-14T04:52:20;4.00;;;2.60;;
29730;SDS011;16639;51.488;0.152;2024-02-14T04:54:48;6.32;;;2.92;;
29730;SDS011;16639;51.488;0.152;2024-02-14T04:57:15;5.28;;;3.00;;
29730;SDS011;16639;51.488;0.152;2024-02-14T04:59:43;6.13;;;2.33;;
29730;SDS011;16639;51.488;0.152;2024-02-14T05:02:10;6.88;;;2.60;;
29730;SDS011;16639;51.488;0.152;2024-02-14T05:04:39;6.55;;;2.45;;
29730;SDS011;16639;51.488;0.152;2024-02-14T05:07:07;7.65;;;2.90;;
29730;SDS011;16639;51.488;0.152;2024-02-14T05:09:34;7.07;;;2.03;;
29730;SDS011;16639;51.488;0.152;2024-02-14T05:12:02;6.63;;;2.30;;
29730;SDS011;16639;51.488;0.152;2024-02-14T05:14:30;7.05;;;2.25;;
29730;SDS011;16639;51.488;0.152;2024-02-14T05:16:58;3.83;;;2.10;;
29730;SDS011;16639;51.488;0.152;2024-02-14T05:19:28;7.78;;;2.63;;
29730;SDS011;16639;51.488;0.152;2024-02-14T05:21:56;6.93;;;2.10;;
29730;SDS011;16639;51.488;0.152;2024-02-14T05:24:24;10.30;;;2.03;;
29730;SDS011;16639;51.488;0.152;2024-02-14T05:26:54;5.53;;;2.13;;
29730;SDS011;16639;51.488;0.152;2024-02-14T05:29:22;5.75;;;1.90;;
29730;SDS011;16639;51.488;0.152;2024-02-14T05:31:49;5.63;;;1.90;;
29730;SDS011;16639;51.488;0.152;2024-02-14T05:34:20;5.20;;;1.73;;
29730;SDS011;16639;51.488;0.152;2024-02-14T05:36:47;4.25;;;1.70;;
29730;SDS011;16639;51.488;0.152;2024-02-14T05:39:14;3.58;;;1.88;;
29730;SDS011;16639;51.488;0.152;2024-02-14T05:41:43;2.97;;;1.77;;
29730;SDS011;16639;51.488;0.152;2024-02-14T05:44:10;2.83;;;1.95;;
29730;SDS011;16639;51.488;0.152;2024-02-14T05:46:37;4.93;;;1.70;;
29730;SDS011;16639;51.488;0.152;2024-02-14T05:49:05;3.65;;;1.58;;
29730;SDS011;16639;51.488;0.152;2024-02-14T05:51:33;2.53;;;1.70;;
29730;SDS011;16639;51.488;0.152;2024-02-14T05:54:01;7.07;;;2.17;;
29730;SDS011;16639;51.488;0.152;2024-02-14T05:56:28;6.95;;;1.73;;
29730;SDS011;16639;51.488;0.152;2024-02-14T05:58:56;2.83;;;1.85;;
29730;SDS011;16639;51.488;0.152;2024-02-14T06:01:23;4.55;;;1.98;;
29730;SDS011;16639;51.488;0.152;2024-02-14T06:03:51;9.50;;;2.10;;
29730;SDS011;16639;51.488;0.152;2024-02-14T06:06:19;5.50;;;2.03;;
29730;SDS011;16639;51.488;0.152;2024-02-14T06:08:46;7.65;;;1.73;;
29730;SDS011;16639;51.488;0.152;2024-02-14T06:11:14;3.90;;;1.83;;
29730;SDS011;16639;51.488;0.152;2024-02-14T06:13:43;2.60;;;1.90;;
29730;SDS011;16639;51.488;0.152;2024-02-14T06:16:11;2.63;;;2.08;;
29730;SDS011;16639;51.488;0.152;2024-02-14T06:18:38;6.10;;;2.10;;
29730;SDS011;16639;51.488;0.152;2024-02-14T06:21:07;4.45;;;2.08;;
29730;SDS011;16639;51.488;0.152;2024-02-14T06:23:34;3.22;;;2.35;;
29730;SDS011;16639;51.488;0.152;2024-02-14T06:26:04;5.05;;;2.67;;
29730;SDS011;16639;51.488;0.152;2024-02-14T06:28:31;3.10;;;2.33;;
29730;SDS011;16639;51.488;0.152;2024-02-14T06:30:59;4.78;;;2.08;;
29730;SDS011;16639;51.488;0.152;2024-02-14T06:33:27;9.02;;;2.67;;
29730;SDS011;16639;51.488;0.152;2024-02-14T06:35:55;5.10;;;2.78;;
29730;SDS011;16639;51.488;0.152;2024-02-14T06:38:23;5.78;;;2.45;;
29730;SDS011;16639;51.488;0.152;2024-02-14T06:40:51;5.13;;;2.35;;
29730;SDS011;16639;51.488;0.152;2024-02-14T06:43:18;6.80;;;2.80;;
29730;SDS011;16639;51.488;0.152;2024-02-14T06:45:46;6.57;;;2.58;;
29730;SDS011;16639;51.488;0.152;2024-02-14T06:48:14;6.50;;;2.50;;
29730;SDS011;16639;51.488;0.152;2024-02-14T06:50:41;2.50;;;1.95;;
29730;SDS011;16639;51.488;0.152;2024-02-14T06:53:09;5.93;;;2.17;;
29730;SDS011;16639;51.488;0.152;2024-02-14T06:55:36;11.15;;;2.88;;
29730;SDS011;16639;51.488;0.152;2024-02-14T06:58:04;2.88;;;1.80;;
29730;SDS011;16639;51.488;0.152;2024-02-14T07:00:32;3.67;;;1.65;;
29730;SDS011;16639;51.488;0.152;2024-02-14T07:03:00;6.45;;;1.70;;
29730;SDS011;16639;51.488;0.152;2024-02-14T07:05:28;3.40;;;1.55;;
29730;SDS011;16639;51.488;0.152;2024-02-14T07:07:56;1.65;;;1.40;;
29730;SDS011;16639;51.488;0.152;2024-02-14T07:10:24;4.15;;;1.48;;
29730;SDS011;16639;51.488;0.152;2024-02-14T07:12:51;1.90;;;1.23;;
29730;SDS011;16639;51.488;0.152;2024-02-14T07:15:21;3.53;;;1.30;;
29730;SDS011;16639;51.488;0.152;2024-02-14T07:17:52;3.65;;;1.38;;
29730;SDS011;16639;51.488;0.152;2024-02-14T07:20:20;3.78;;;1.10;;
29730;SDS011;16639;51.488;0.152;2024-02-14T07:22:48;1.20;;;1.10;;
29730;SDS011;16639;51.488;0.152;2024-02-14T07:25:19;2.45;;;1.40;;
29730;SDS011;16639;51.488;0.152;2024-02-14T07:27:47;1.70;;;1.30;;
29730;SDS011;16639;51.488;0.152;2024-02-14T07:30:16;2.60;;;1.00;;
29730;SDS011;16639;51.488;0.152;2024-02-14T07:32:44;2.22;;;1.20;;
29730;SDS011;16639;51.488;0.152;2024-02-14T07:35:12;4.68;;;1.20;;
29730;SDS011;16639;51.488;0.152;2024-02-14T07:37:40;1.73;;;1.05;;
29730;SDS011;16639;51.488;0.152;2024-02-14T07:40:09;3.85;;;1.23;;
29730;SDS011;16639;51.488;0.152;2024-02-14T07:42:37;1.60;;;0.98;;
29730;SDS011;16639;51.488;0.152;2024-02-14T07:45:05;0.77;;;0.77;;
29730;SDS011;16639;51.488;0.152;2024-02-14T07:47:32;3.83;;;1.20;;
29730;SDS011;16639;51.488;0.152;2024-02-14T07:50:00;0.93;;;0.93;;
29730;SDS011;16639;51.488;0.152;2024-02-14T07:52:29;1.13;;;1.02;;
29730;SDS011;16639;51.488;0.152;2024-02-14T07:55:00;2.90;;;1.50;;
29730;SDS011;16639;51.488;0.152;2024-02-14T07:57:28;1.30;;;0.95;;
29730;SDS011;16639;51.488;0.152;2024-02-14T07:59:55;3.60;;;1.27;;
29730;SDS011;16639;51.488;0.152;2024-02-14T08:02:22;1.67;;;1.52;;
29730;SDS011;16639;51.488;0.152;2024-02-14T08:04:50;2.88;;;1.33;;
29730;SDS011;16639;51.488;0.152;2024-02-14T08:07:19;2.50;;;1.45;;
29730;SDS011;16639;51.488;0.152;2024-02-14T08:09:46;1.90;;;1.67;;
29730;SDS011;16639;51.488;0.152;2024-02-14T08:12:13;1.40;;;1.20;;
29730;SDS011;16639;51.488;0.152;2024-02-14T08:14:41;3.10;;;1.70;;
29730;SDS011;16639;51.488;0.152;2024-02-14T08:17:08;3.70;;;1.80;;
29730;SDS011;16639;51.488;0.152;2024-02-14T08:19:36;6.32;;;2.10;;
29730;SDS011;16639;51.488;0.152;2024-02-14T08:22:03;1.70;;;1.58;;
29730;SDS011;16639;51.488;0.152;2024-02-14T08:24:32;2.38;;;2.13;;
29730;SDS011;16639;51.488;0.152;2024-02-14T08:27:00;2.47;;;1.70;;
29730;SDS011;16639;51.488;0.152;2024-02-14T08:29:27;2.67;;;1.60;;
29730;SDS011;16639;51.488;0.152;2024-02-14T08:31:55;5.10;;;1.70;;
29730;SDS011;16639;51.488;0.152;2024-02-14T08:34:23;3.55;;;2.03;;
29730;SDS011;16639;51.488;0.152;2024-02-14T08:36:51;4.00;;;2.83;;
29730;SDS011;16639;51.488;0.152;2024-02-14T08:39:18;8.90;;;3.72;;
29730;SDS011;16639;51.488;0.152;2024-02-14T08:41:46;5.78;;;2.17;;
29730;SDS011;16639;51.488;0.152;2024-02-14T08:44:14;5.90;;;1.85;;
29730;SDS011;16639;51.488;0.152;2024-02-14T08:46:42;1.67;;;1.58;;
29730;SDS011;16639;51.488;0.152;2024-02-14T08:49:11;2.75;;;1.33;;
29730;SDS011;16639;51.488;0.152;2024-02-14T08:51:39;2.47;;;2.10;;
29730;SDS011;16639;51.488;0.152;2024-02-14T08:54:06;2.85;;;1.92;;
29730;SDS011;16639;51.488;0.152;2024-02-14T08:56:34;3.85;;;1.77;;
29730;SDS011;16639;51.488;0.152;2024-02-14T08:59:03;4.85;;;2.40;;
29730;SDS011;16639;51.488;0.152;2024-02-14T09:01:33;5.13;;;1.55;;
29730;SDS011;16639;51.488;0.152;2024-02-14T09:04:03;2.75;;;1.80;;
29730;SDS011;16639;51.488;0.152;2024-02-14T09:06:30;2.97;;;1.67;;
29730;SDS011;16639;51.488;0.152;2024-02-14T09:08:59;2.08;;;1.80;;
29730;SDS011;16639;51.488;0.152;2024-02-14T09:11:27;3.70;;;1.80;;
29730;SDS011;16639;51.488;0.152;2024-02-14T09:13:54;1.50;;;1.40;;
29730;SDS011;16639;51.488;0.152;2024-02-14T09:16:26;2.78;;;1.63;;
29730;SDS011;16639;51.488;0.152;2024-02-14T09:18:53;7.90;;;2.10;;
29730;SDS011;16639;51.488;0.152;2024-02-14T09:21:21;3.88;;;1.83;;
29730;SDS011;16639;51.488;0.152;2024-02-14T09:23:48;2.28;;;1.40;;
29730;SDS011;16639;51.488;0.152;2024-02-14T09:26:16;4.07;;;1.77;;
29730;SDS011;16639;51.488;0.152;2024-02-14T09:28:44;2.85;;;1.13;;
29730;SDS011;16639;51.488;0.152;2024-02-14T09:31:11;7.25;;;1.75;;
29730;SDS011;16639;51.488;0.152;2024-02-14T09:33:39;2.78;;;1.50;;
29730;SDS011;16639;51.488;0.152;2024-02-14T09:36:07;1.98;;;1.20;;
29730;SDS011;16639;51.488;0.152;2024-02-14T09:38:35;2.47;;;1.23;;
29730;SDS011;16639;51.488;0.152;2024-02-14T09:43:54;0.95;;;0.90;;
29730;SDS011;16639;51.488;0.152;2024-02-14T09:46:23;1.58;;;0.95;;
29730;SDS011;16639;51.488;0.152;2024-02-14T09:48:52;2.72;;;0.77;;
29730;SDS011;16639;51.488;0.152;2024-02-14T09:51:21;1.40;;;0.80;;
29730;SDS011;16639;51.488;0.152;2024-02-14T09:53:53;1.02;;;0.80;;
29730;SDS011;16639;51.488;0.152;2024-02-14T09:56:21;2.45;;;0.90;;
29730;SDS011;16639;51.488;0.152;2024-02-14T09:58:53;3.13;;;0.98;;
29730;SDS011;16639;51.488;0.152;2024-02-14T10:01:24;2.00;;;1.00;;
29730;SDS011;16639;51.488;0.152;2024-02-14T10:03:55;2.05;;;0.77;;
29730;SDS011;16639;51.488;0.152;2024-02-14T10:06:23;0.93;;;0.80;;
29730;SDS011;16639;51.488;0.152;2024-02-14T10:08:52;1.70;;;0.70;;
29730;SDS011;16639;51.488;0.152;2024-02-14T10:11:30;0.60;;;0.60;;
29730;SDS011;16639;51.488;0.152;2024-02-14T10:13:59;2.40;;;0.80;;
29730;SDS011;16639;51.488;0.152;2024-02-14T10:16:31;0.70;;;0.70;;
29730;SDS011;16639;51.488;0.152;2024-02-14T10:18:58;1.33;;;0.63;;
29730;SDS011;16639;51.488;0.152;2024-02-14T10:21:26;1.67;;;0.90;;
29730;SDS011;16639;51.488;0.152;2024-02-14T10:23:59;0.47;;;0.47;;
29730;SDS011;16639;51.488;0.152;2024-02-14T10:26:28;0.80;;;0.80;;
29730;SDS011;16639;51.488;0.152;2024-02-14T10:28:57;4.15;;;1.52;;
29730;SDS011;16639;51.488;0.152;2024-02-14T10:31:26;1.33;;;1.25;;
29730;SDS011;16639;51.488;0.152;2024-02-14T10:33:54;2.47;;;1.10;;
29730;SDS011;16639;51.488;0.152;2024-02-14T10:36:23;0.63;;;0.63;;
29730;SDS011;16639;51.488;0.152;2024-02-14T10:38:50;1.23;;;0.60;;
29730;SDS011;16639;51.488;0.152;2024-02-14T10:41:18;0.95;;;0.73;;
29730;SDS011;16639;51.488;0.152;2024-02-14T10:43:46;0.75;;;0.73;;
29730;SDS011;16639;51.488;0.152;2024-02-14T10:46:20;1.52;;;1.00;;
29730;SDS011;16639;51.488;0.152;2024-02-14T10:48:50;0.80;;;0.80;;
29730;SDS011;16639;51.488;0.152;2024-02-14T10:51:23;0.82;;;0.82;;
29730;SDS011;16639;51.488;0.152;2024-02-14T10:53:54;1.45;;;0.80;;
29730;SDS011;16639;51.488;0.152;2024-02-14T10:56:28;1.35;;;0.82;;
29730;SDS011;16639;51.488;0.152;2024-02-14T10:58:59;0.63;;;0.63;;
29730;SDS011;16639;51.488;0.152;2024-02-14T11:01:29;1.42;;;0.73;;
29730;SDS011;16639;51.488;0.152;2024-02-14T11:03:59;3.45;;;0.70;;
29730;SDS011;16639;51.488;0.152;2024-02-14T11:06:27;1.13;;;1.02;;
29730;SDS011;16639;51.488;0.152;2024-02-14T11:09:00;3.55;;;1.10;;
29730;SDS011;16639;51.488;0.152;2024-02-14T11:11:34;1.45;;;1.00;;
29730;SDS011;16639;51.488;0.152;2024-02-14T11:14:02;6.53;;;0.93;;
29730;SDS011;16639;51.488;0.152;2024-02-14T11:16:30;3.20;;;1.00;;
29730;SDS011;16639;51.488;0.152;2024-02-14T11:19:10;4.50;;;0.90;;
29730;SDS011;16639;51.488;0.152;2024-02-14T11:21:42;1.92;;;0.80;;
29730;SDS011;16639;51.488;0.152;2024-02-14T11:24:12;1.95;;;0.88;;
29730;SDS011;16639;51.488;0.152;2024-02-14T11:26:51;2.08;;;0.80;;
29730;SDS011;16639;51.488;0.152;2024-02-14T11:29:20;1.55;;;1.00;;
29730;SDS011;16639;51.488;0.152;2024-02-14T11:31:58;1.40;;;1.02;;
29730;SDS011;16639;51.488;0.152;2024-02-14T11:34:28;5.63;;;1.30;;
29730;SDS011;16639;51.488;0.152;2024-02-14T11:36:55;1.45;;;1.10;;
29730;SDS011;16639;51.488;0.152;2024-02-14T11:39:23;1.52;;;1.30;;
29730;SDS011;16639;51.488;0.152;2024-02-14T11:41:50;2.95;;;1.48;;
29730;SDS011;16639;51.488;0.152;2024-02-14T11:44:19;2.17;;;1.27;;
29730;SDS011;16639;51.488;0.152;2024-02-14T11:46:49;1.17;;;1.08;;
29730;SDS011;16639;51.488;0.152;2024-02-14T11:49:16;1.65;;;1.38;;
29730;SDS011;16639;51.488;0.152;2024-02-14T11:51:44;6.30;;;3.65;;
29730;SDS011;16639;51.488;0.152;2024-02-14T11:54:12;14.07;;;6.07;;
29730;SDS011;16639;51.488;0.152;2024-02-14T11:56:40;6.28;;;2.67;;
29730;SDS011;16639;51.488;0.152;2024-02-14T11:59:08;12.70;;;4.50;;
29730;SDS011;16639;51.488;0.152;2024-02-14T12:01:38;3.95;;;2.20;;
29730;SDS011;16639;51.488;0.152;2024-02-14T12:04:07;7.72;;;4.95;;
29730;SDS011;16639;51.488;0.152;2024-02-14T12:06:36;7.43;;;3.85;;
29730;SDS011;16639;51.488;0.152;2024-02-14T12:09:08;11.98;;;5.78;;
29730;SDS011;16639;51.488;0.152;2024-02-14T12:11:36;7.85;;;3.50;;
29730;SDS011;16639;51.488;0.152;2024-02-14T12:14:08;6.72;;;2.08;;
29730;SDS011;16639;51.488;0.152;2024-02-14T12:16:37;5.35;;;2.90;;
29730;SDS011;16639;51.488;0.152;2024-02-14T12:19:13;5.47;;;2.50;;
29730;SDS011;16639;51.488;0.152;2024-02-14T12:21:43;7.07;;;2.72;;
29730;SDS011;16639;51.488;0.152;2024-02-14T12:24:12;5.38;;;1.83;;
29730;SDS011;16639;51.488;0.152;2024-02-14T12:26:41;6.50;;;2.15;;
29730;SDS011;16639;51.488;0.152;2024-02-14T12:29:11;3.55;;;1.95;;
29730;SDS011;16639;51.488;0.152;2024-02-14T12:31:40;5.40;;;2.42;;
29730;SDS011;16639;51.488;0.152;2024-02-14T12:34:10;4.78;;;2.38;;
29730;SDS011;16639;51.488;0.152;2024-02-14T12:36:39;3.22;;;2.38;;
29730;SDS011;16639;51.488;0.152;2024-02-14T12:39:07;7.93;;;2.33;;
29730;SDS011;16639;51.488;0.152;2024-02-14T12:41:36;4.72;;;2.13;;
29730;SDS011;16639;51.488;0.152;2024-02-14T12:44:07;9.77;;;2.60;;
29730;SDS011;16639;51.488;0.152;2024-02-14T12:46:35;5.82;;;1.73;;
29730;SDS011;16639;51.488;0.152;2024-02-14T12:49:05;3.60;;;1.85;;
29730;SDS011;16639;51.488;0.152;2024-02-14T12:51:36;3.88;;;1.58;;
29730;SDS011;16639;51.488;0.152;2024-02-14T12:54:05;8.27;;;2.00;;
29730;SDS011;16639;51.488;0.152;2024-02-14T12:56:34;3.08;;;1.40;;
29730;SDS011;16639;51.488;0.152;2024-02-14T12:59:01;5.57;;;1.40;;
29730;SDS011;16639;51.488;0.152;2024-02-14T13:01:30;6.32;;;1.27;;
29730;SDS011;16639;51.488;0.152;2024-02-14T13:03:58;4.72;;;1.67;;
29730;SDS011;16639;51.488;0.152;2024-02-14T13:06:27;4.72;;;2.05;;
29730;SDS011;16639;51.488;0.152;2024-02-14T13:08:54;4.40;;;1.80;;
29730;SDS011;16639;51.488;0.152;2024-02-14T13:11:22;7.10;;;1.90;;
29730;SDS011;16639;51.488;0.152;2024-02-14T13:13:50;3.15;;;1.40;;
29730;SDS011;16639;51.488;0.152;2024-02-14T13:16:17;3.45;;;1.70;;
29730;SDS011;16639;51.488;0.152;2024-02-14T13:18:44;4.53;;;1.40;;
29730;SDS011;16639;51.488;0.152;2024-02-14T13:21:12;5.18;;;1.70;;
29730;SDS011;16639;51.488;0.152;2024-02-14T13:23:40;4.35;;;2.20;;
29730;SDS011;16639;51.488;0.152;2024-02-14T13:26:07;5.90;;;1.73;;
29730;SDS011;16639;51.488;0.152;2024-02-14T13:28:35;2.58;;;1.63;;
29730;SDS011;16639;51.488;0.152;2024-02-14T13:31:03;4.03;;;1.60;;
29730;SDS011;16639;51.488;0.152;2024-02-14T13:33:30;4.57;;;1.50;;
29730;SDS011;16639;51.488;0.152;2024-02-14T13:35:58;4.18;;;1.70;;
29730;SDS011;16639;51.488;0.152;2024-02-14T13:38:26;1.95;;;1.10;;
29730;SDS011;16639;51.488;0.152;2024-02-14T13:40:53;1.80;;;1.40;;
29730;SDS011;16639;51.488;0.152;2024-02-14T13:43:20;4.70;;;1.55;;
29730;SDS011;16639;51.488;0.152;2024-02-14T13:45:48;6.05;;;1.90;;
29730;SDS011;16639;51.488;0.152;2024-02-14T13:48:17;7.45;;;1.60;;
29730;SDS011;16639;51.488;0.152;2024-02-14T13:50:45;1.83;;;1.58;;
29730;SDS011;16639;51.488;0.152;2024-02-14T13:53:12;4.68;;;2.05;;
29730;SDS011;16639;51.488;0.152;2024-02-14T13:55:39;1.77;;;1.23;;
29730;SDS011;16639;51.488;0.152;2024-02-14T13:58:09;3.83;;;1.85;;
29730;SDS011;16639;51.488;0.152;2024-02-14T14:00:42;7.05;;;2.13;;
29730;SDS011;16639;51.488;0.152;2024-02-14T14:03:10;1.67;;;1.55;;
29730;SDS011;16639;51.488;0.152;2024-02-14T14:05:38;3.60;;;1.70;;
29730;SDS011;16639;51.488;0.152;2024-02-14T14:08:06;3.13;;;1.38;;
29730;SDS011;16639;51.488;0.152;2024-02-14T14:10:33;3.80;;;1.58;;
29730;SDS011;16639;51.488;0.152;2024-02-14T14:13:01;3.10;;;1.98;;
29730;SDS011;16639;51.488;0.152;2024-02-14T14:15:30;2.60;;;1.50;;
29730;SDS011;16639;51.488;0.152;2024-02-14T14:17:59;2.92;;;1.60;;
29730;SDS011;16639;51.488;0.152;2024-02-14T14:20:27;4.57;;;1.83;;
29730;SDS011;16639;51.488;0.152;2024-02-14T14:22:55;5.70;;;2.20;;
29730;SDS011;16639;51.488;0.152;2024-02-14T14:25:22;1.33;;;1.10;;
29730;SDS011;16639;51.488;0.152;2024-02-14T14:27:50;4.55;;;1.70;;
29730;SDS011;16639;51.488;0.152;2024-02-14T14:30:17;3.22;;;1.25;;
29730;SDS011;16639;51.488;0.152;2024-02-14T14:32:45;4.28;;;1.60;;
29730;SDS011;16639;51.488;0.152;2024-02-14T14:35:12;2.15;;;1.33;;
29730;SDS011;16639;51.488;0.152;2024-02-14T14:37:40;3.28;;;1.33;;
29730;SDS011;16639;51.488;0.152;2024-02-14T14:40:07;7.13;;;1.35;;
29730;SDS011;16639;51.488;0.152;2024-02-14T14:42:37;4.88;;;1.40;;
29730;SDS011;16639;51.488;0.152;2024-02-14T14:45:05;2.90;;;1.73;;
29730;SDS011;16639;51.488;0.152;2024-02-14T14:47:32;4.18;;;1.35;;
29730;SDS011;16639;51.488;0.152;2024-02-14T14:50:00;5.10;;;1.80;;
29730;SDS011;16639;51.488;0.152;2024-02-14T14:52:28;3.97;;;1.38;;
29730;SDS011;16639;51.488;0.152;2024-02-14T14:54:55;1.65;;;1.30;;